Aviation Digital Data Service (ADDS)

Output produced by TAFs form (2218 UTC 10 December 2016)
found at http://www.aviationweather.gov/adds/tafs/
 
KGFL 101738Z 1018/1118 30007KT P6SM SCT030 BKN050 
     TEMPO 1019/1023 BKN030 
     FM110000 27003KT P6SM SCT030 SCT100 
     FM110600 VRB03KT P6SM SCT050 SCT100 
     FM111100 18003KT P6SM SCT020 BKN040 BKN100